Time;durP1;ratioP1;P1;durP2;ratioP2;P2;SDS_P1;SDS_P2;PMS_P1;PMS_P2;Temp;Humidity;BMP_temperature;BMP_pressure;BME280_temperature;BME280_humidity;BME280_pressure;Samples;Min_cycle;Max_cycle;Signal;HPM_P1;HPM_P2
2021/10/20 00:01:40;;;;;;;27.60;15.50;;;;;;;2.03;84.57;98561.52;116003;1184;69273;-66
2021/10/20 00:04:10;;;;;;;;;;;;;;;2.01;84.37;98559.48;116207;1182;60378;-62
2021/10/20 00:06:40;;;;;;;24.10;14.20;;;;;;;2.00;84.00;98559.52;116294;1182;60383;-64
2021/10/20 00:09:10;;;;;;;21.90;14.40;;;;;;;2.00;83.92;98553.86;116113;1184;72740;-62
2021/10/20 00:11:41;;;;;;;21.80;13.70;;;;;;;1.99;83.29;98551.46;116128;1184;68649;-63
2021/10/20 00:14:12;;;;;;;15.50;11.10;;;;;;;1.96;82.52;98548.77;116120;1182;68301;-64
2021/10/20 00:16:42;;;;;;;19.80;13.80;;;;;;;1.94;81.98;98548.30;116327;1182;60373;-65
2021/10/20 00:19:13;;;;;;;14.70;9.10;;;;;;;1.92;82.07;98548.18;116167;1185;60345;-67
2021/10/20 00:21:43;;;;;;;;;;;;;;;1.91;81.39;98542.70;116092;1184;71675;-62
2021/10/20 00:24:12;;;;;;;28.90;17.00;;;;;;;1.89;81.62;98542.04;116128;1184;68224;-65
2021/10/20 00:26:43;;;;;;;;;;;;;;;1.88;83.63;98539.65;116113;1183;69276;-63
2021/10/20 00:29:12;;;;;;;12.60;8.20;;;;;;;1.89;81.95;98536.38;115972;1184;60358;-63
2021/10/20 00:31:42;;;;;;;11.60;7.80;;;;;;;1.88;81.43;98534.84;115991;1184;60351;-66
2021/10/20 00:34:12;;;;;;;14.70;9.80;;;;;;;1.87;80.19;98532.09;115923;1185;71304;-64
2021/10/20 00:36:42;;;;;;;;;;;;;;;1.85;82.72;98526.82;116144;1184;67691;-66
2021/10/20 00:39:13;;;;;;;14.50;9.30;;;;;;;1.82;82.09;98526.71;116178;1184;69218;-67
2021/10/20 00:41:43;;;;;;;14.80;9.50;;;;;;;1.79;81.04;98522.45;115955;1184;60465;-64
2021/10/20 00:44:13;;;;;;;12.80;8.90;;;;;;;1.77;80.59;98519.77;116067;1183;60336;-65
2021/10/20 00:46:43;;;;;;;13.80;10.70;;;;;;;1.74;81.26;98518.09;116072;1184;71526;-64
2021/10/20 00:49:12;;;;;;;11.90;8.20;;;;;;;1.72;80.85;98513.69;116055;1184;68287;-64
2021/10/20 00:51:43;;;;;;;18.90;11.90;;;;;;;1.70;80.09;98508.89;115989;1184;69307;-62
2021/10/20 00:54:13;;;;;;;;;;;;;;;1.69;81.27;98506.01;116076;1184;60366;-62
2021/10/20 00:56:43;;;;;;;15.40;10.20;;;;;;;1.67;81.33;98507.77;116084;1183;60357;-64
2021/10/20 00:59:14;;;;;;;22.30;14.60;;;;;;;1.64;83.20;98503.52;116060;1184;71419;-63
2021/10/20 01:01:43;;;;;;;23.60;16.10;;;;;;;1.61;83.95;98501.50;115963;1184;68457;-65
2021/10/20 01:04:13;;;;;;;;;;;;;;;1.59;84.40;98502.59;116098;1183;69320;-62
2021/10/20 01:06:44;;;;;;;25.50;16.00;;;;;;;1.57;84.18;98506.05;116161;1182;60383;-62
2021/10/20 01:09:14;;;;;;;26.90;16.90;;;;;;;1.55;85.61;98503.89;115992;1184;60423;-62
2021/10/20 01:11:45;;;;;;;27.10;19.10;;;;;;;1.51;84.45;98503.06;116108;1184;70879;-62
2021/10/20 01:14:16;;;;;;;34.60;21.00;;;;;;;1.47;83.23;98501.96;116109;1183;67601;-63
2021/10/20 01:16:47;;;;;;;27.30;17.40;;;;;;;1.39;82.95;98502.29;116144;1179;69559;-64
2021/10/20 01:19:19;;;;;;;21.00;13.00;;;;;;;1.35;81.73;98502.36;116166;1179;60341;-63
2021/10/20 01:21:50;;;;;;;26.20;17.40;;;;;;;1.33;80.72;98500.84;116178;1183;60366;-63
2021/10/20 01:24:21;;;;;;;17.40;12.10;;;;;;;1.27;81.31;98500.94;116145;1184;72022;-64
2021/10/20 01:26:55;;;;;;;16.40;10.60;;;;;;;1.24;80.95;98498.77;116054;1183;68383;-63
2021/10/20 01:29:25;;;;;;;10.50;7.40;;;;;;;1.22;80.52;98503.95;115884;1184;69075;-63
2021/10/20 01:31:59;;;;;;;14.10;10.10;;;;;;;1.20;79.77;98503.66;116136;1183;60343;-63
2021/10/20 01:34:32;;;;;;;14.60;10.40;;;;;;;1.17;80.20;98501.83;116238;1182;60379;-63
2021/10/20 01:37:04;;;;;;;11.60;8.10;;;;;;;1.14;80.25;98502.55;116144;1184;70651;-65
2021/10/20 01:39:34;;;;;;;21.40;13.40;;;;;;;1.12;81.15;98500.20;116380;1182;67753;-63
2021/10/20 01:42:03;;;;;;;20.20;13.70;;;;;;;1.08;81.83;98498.23;116153;1182;69271;-65
2021/10/20 01:44:33;;;;;;;19.50;12.50;;;;;;;1.06;83.20;98496.86;116058;1183;60361;-63
2021/10/20 01:47:04;;;;;;;28.10;17.00;;;;;;;1.04;82.68;98497.77;116135;1182;60370;-65
2021/10/20 01:49:35;;;;;;;18.70;11.80;;;;;;;1.02;83.10;98498.14;116050;1184;72244;-63
2021/10/20 01:52:05;;;;;;;16.10;11.60;;;;;;;1.00;82.20;98492.32;116141;1183;67408;-65
2021/10/20 01:54:35;;;;;;;11.70;8.20;;;;;;;1.00;82.10;98494.73;116130;1182;69139;-63
2021/10/20 01:57:05;;;;;;;11.50;7.10;;;;;;;0.99;81.12;98492.00;116128;1184;60352;-64
2021/10/20 01:59:34;;;;;;;;;;;;;;;1.01;79.46;98489.73;116059;1185;60382;-64
2021/10/20 02:02:15;;;;;;;12.60;8.20;;;;;;;1.04;79.46;98492.44;115986;1184;72182;-63
2021/10/20 02:04:46;;;;;;;14.20;7.90;;;;;;;1.04;80.88;98495.34;116124;1184;68261;-64
2021/10/20 02:07:17;;;;;;;14.40;9.70;;;;;;;1.03;81.02;98488.85;116120;1184;68440;-66
2021/10/20 02:09:47;;;;;;;8.80;5.60;;;;;;;1.00;80.93;98487.00;116047;1184;60360;-63
2021/10/20 02:12:17;;;;;;;13.40;9.00;;;;;;;0.98;79.83;98487.73;116205;1182;60343;-62
2021/10/20 02:14:47;;;;;;;16.30;10.80;;;;;;;0.95;79.81;98485.38;116258;1182;72103;-64
2021/10/20 02:17:17;;;;;;;14.50;8.40;;;;;;;0.92;79.71;98486.10;116220;1182;68401;-62
2021/10/20 02:19:47;;;;;;;;;;;;;;;0.90;79.21;98488.02;116222;1182;68396;-63
2021/10/20 02:22:18;;;;;;;16.70;11.10;;;;;;;0.89;79.81;98489.44;116086;1182;60357;-63
2021/10/20 02:24:49;;;;;;;17.30;10.10;;;;;;;0.87;80.68;98489.45;116077;1183;60452;-63
2021/10/20 02:27:19;;;;;;;11.30;8.90;;;;;;;0.87;80.34;98489.29;116116;1183;71978;-63
2021/10/20 02:29:49;;;;;;;14.10;9.50;;;;;;;0.87;80.03;98493.92;116142;1184;68219;-65
2021/10/20 02:32:19;;;;;;;14.00;10.20;;;;;;;0.86;80.16;98489.80;116024;1182;68260;-65
2021/10/20 02:34:49;;;;;;;22.40;13.60;;;;;;;0.86;79.84;98487.42;116074;1182;60364;-64
2021/10/20 02:37:19;;;;;;;30.90;21.10;;;;;;;0.85;81.42;98487.27;116168;1182;60340;-65
2021/10/20 02:39:49;;;;;;;22.50;14.40;;;;;;;0.80;82.92;98488.22;116043;1183;72193;-66
2021/10/20 02:42:19;;;;;;;17.40;9.90;;;;;;;0.80;81.16;98492.16;116083;1185;67681;-65
2021/10/20 02:44:49;;;;;;;12.60;8.30;;;;;;;0.79;80.56;98490.45;116016;1184;69307;-65
2021/10/20 02:47:20;;;;;;;19.70;10.40;;;;;;;0.78;80.82;98492.52;116009;1184;60366;-64
2021/10/20 02:49:50;;;;;;;19.80;13.70;;;;;;;0.75;80.08;98495.84;115977;1184;60360;-64
2021/10/20 02:52:20;;;;;;;19.10;11.70;;;;;;;0.71;81.57;98496.77;116144;1184;71412;-66
2021/10/20 02:54:50;;;;;;;14.00;9.40;;;;;;;0.67;82.59;98497.34;116293;1182;68327;-64
2021/10/20 02:57:21;;;;;;;12.10;6.60;;;;;;;0.63;83.07;98499.46;116317;1182;68169;-62
2021/10/20 02:59:52;;;;;;;12.40;9.30;;;;;;;0.62;81.77;98500.00;116266;1182;60371;-63
2021/10/20 03:02:22;;;;;;;18.20;11.70;;;;;;;0.61;83.20;98495.73;116113;1184;60358;-63
2021/10/20 03:04:52;;;;;;;8.70;6.40;;;;;;;0.61;82.50;98498.83;116062;1184;70626;-63
2021/10/20 03:07:22;;;;;;;11.00;6.90;;;;;;;0.61;81.30;98498.81;116155;1182;67691;-62
2021/10/20 03:09:52;;;;;;;9.70;6.40;;;;;;;0.61;80.91;98500.54;116290;1182;69026;-62
2021/10/20 03:12:22;;;;;;;15.80;9.40;;;;;;;0.61;81.01;98500.88;116221;1182;60306;-63
2021/10/20 03:14:53;;;;;;;12.50;8.20;;;;;;;0.60;80.16;98498.15;116072;1183;60390;-62
2021/10/20 03:17:24;;;;;;;;;;;;;;;0.58;81.90;98499.20;116287;1182;71198;-63
2021/10/20 03:19:54;;;;;;;13.00;8.00;;;;;;;0.52;84.40;98501.34;116075;1177;68363;-61
2021/10/20 03:22:24;;;;;;;9.70;6.90;;;;;;;0.49;83.16;98498.12;116081;1178;69182;-63
2021/10/20 03:24:54;;;;;;;9.30;7.10;;;;;;;0.48;82.26;98496.10;116238;1182;60363;-63
2021/10/20 03:27:24;;;;;;;19.30;11.00;;;;;;;0.46;82.30;98497.32;116132;1184;60432;-63
2021/10/20 03:29:55;;;;;;;14.80;10.00;;;;;;;0.44;83.62;98493.39;116168;1182;71617;-65
2021/10/20 03:32:24;;;;;;;11.00;8.20;;;;;;;0.43;83.57;98491.20;116150;1182;68018;-64
2021/10/20 03:34:54;;;;;;;10.70;7.10;;;;;;;0.42;82.83;98492.59;116083;1183;69325;-65
2021/10/20 03:37:23;;;;;;;12.00;7.90;;;;;;;0.40;83.01;98491.56;116151;1175;60376;-64
2021/10/20 03:39:53;;;;;;;8.30;5.50;;;;;;;0.40;82.40;98488.65;116255;1182;60300;-65
2021/10/20 03:42:23;;;;;;;22.60;13.80;;;;;;;0.41;82.77;98490.52;116144;1183;72185;-62
2021/10/20 03:44:53;;;;;;;23.10;14.10;;;;;;;0.38;85.87;98486.98;115992;1184;68480;-65
2021/10/20 03:47:23;;;;;;;;;;;;;;;0.33;85.80;98486.88;116162;1183;69362;-64
2021/10/20 03:49:53;;;;;;;10.10;6.20;;;;;;;0.31;85.05;98483.47;116258;1183;60367;-65
2021/10/20 03:52:23;;;;;;;13.90;8.10;;;;;;;0.31;83.69;98484.52;116291;1182;60299;-63
2021/10/20 03:54:53;;;;;;;11.90;8.80;;;;;;;0.29;82.96;98485.07;116076;1184;72375;-62
2021/10/20 03:57:22;;;;;;;11.90;6.40;;;;;;;0.28;82.65;98488.50;116108;1182;68427;-63
2021/10/20 03:59:52;;;;;;;16.30;10.00;;;;;;;0.28;82.80;98487.98;116217;1182;68494;-64
2021/10/20 04:02:21;;;;;;;16.50;10.30;;;;;;;0.25;84.22;98482.02;116063;1183;60374;-64
2021/10/20 04:04:51;;;;;;;13.70;9.20;;;;;;;0.23;83.26;98480.84;116169;1182;60383;-63
2021/10/20 04:07:20;;;;;;;10.90;7.50;;;;;;;0.20;82.56;98480.38;116166;1184;72175;-66
2021/10/20 04:09:50;;;;;;;16.40;9.40;;;;;;;0.18;81.92;98484.02;115969;1178;67780;-64
2021/10/20 04:12:19;;;;;;;16.20;10.30;;;;;;;0.15;81.64;98485.27;116265;1182;67542;-63
2021/10/20 04:14:49;;;;;;;18.50;11.20;;;;;;;0.12;81.22;98482.90;116158;1182;60366;-63
2021/10/20 04:17:18;;;;;;;20.40;12.20;;;;;;;0.09;81.25;98480.88;116027;1184;60366;-64
2021/10/20 04:19:48;;;;;;;17.10;11.00;;;;;;;0.07;80.63;98481.94;116036;1184;71648;-63
2021/10/20 04:22:17;;;;;;;18.30;10.00;;;;;;;0.04;81.79;98484.55;116139;1183;68462;-64
2021/10/20 04:24:47;;;;;;;14.10;8.90;;;;;;;0.01;81.67;98489.05;116170;1176;69346;-63
2021/10/20 04:27:16;;;;;;;9.80;6.70;;;;;;;-0.01;81.29;98487.52;116131;1184;60356;-63
2021/10/20 04:29:46;;;;;;;10.60;8.00;;;;;;;-0.02;82.17;98486.17;115974;1183;60382;-63
2021/10/20 04:32:15;;;;;;;23.90;14.20;;;;;;;-0.04;82.31;98486.20;116212;1183;71979;-62
2021/10/20 04:34:45;;;;;;;11.60;6.40;;;;;;;-0.04;82.15;98486.20;116179;1184;67728;-61
2021/10/20 04:37:14;;;;;;;8.50;6.00;;;;;;;-0.05;81.58;98488.44;116292;1182;68511;-63
2021/10/20 04:39:43;;;;;;;24.80;15.10;;;;;;;-0.05;80.87;98487.08;116228;1184;60719;-64
2021/10/20 04:42:13;;;;;;;14.90;10.60;;;;;;;-0.06;81.98;98490.67;116101;1184;60409;-61
2021/10/20 04:44:42;;;;;;;16.50;10.10;;;;;;;-0.06;81.88;98488.10;116083;1183;72162;-63
2021/10/20 04:47:12;;;;;;;13.20;9.00;;;;;;;-0.07;81.94;98484.17;116152;1182;67778;-66
2021/10/20 04:49:43;;;;;;;30.10;16.60;;;;;;;-0.08;81.42;98481.10;115928;1184;69271;-62
2021/10/20 04:52:12;;;;;;;19.80;12.60;;;;;;;-0.09;84.20;98484.73;116074;1182;60347;-63
2021/10/20 04:54:42;;;;;;;14.20;7.80;;;;;;;-0.09;83.40;98485.76;116256;1182;60343;-64
2021/10/20 04:57:12;;;;;;;13.50;9.20;;;;;;;-0.08;82.70;98486.09;116142;1183;72199;-61
2021/10/20 04:59:41;;;;;;;9.70;6.10;;;;;;;-0.07;82.29;98487.79;116132;1183;68439;-64
2021/10/20 05:02:10;;;;;;;17.20;11.80;;;;;;;-0.05;81.07;98488.27;116050;1184;68560;-64
2021/10/20 05:04:40;;;;;;;13.80;9.50;;;;;;;-0.02;81.71;98491.13;116098;1184;60402;-62
2021/10/20 05:07:11;;;;;;;14.50;10.60;;;;;;;0.02;82.03;98494.70;116158;1182;60308;-63
2021/10/20 05:09:40;;;;;;;25.00;14.40;;;;;;;0.07;83.34;98497.03;116114;1184;72763;-64
2021/10/20 05:12:10;;;;;;;23.10;14.80;;;;;;;0.07;85.33;98497.03;116319;1182;68148;-64
2021/10/20 05:14:39;;;;;;;29.40;15.70;;;;;;;0.07;84.94;98494.29;116257;1182;67699;-63
2021/10/20 05:17:08;;;;;;;38.80;19.40;;;;;;;0.00;84.99;98492.65;116065;1182;60366;-63
2021/10/20 05:19:38;;;;;;;49.00;23.40;;;;;;;-0.05;85.06;98492.38;116052;1184;60335;-62
2021/10/20 05:22:07;;;;;;;53.10;24.50;;;;;;;-0.07;85.22;98495.48;116159;1182;71501;-64
2021/10/20 05:24:36;;;;;;;62.60;26.50;;;;;;;-0.09;85.35;98494.14;116065;1184;68385;-62
2021/10/20 05:27:06;;;;;;;75.50;27.60;;;;;;;-0.14;85.78;98490.96;116149;1183;69338;-63
2021/10/20 05:29:35;;;;;;;29.10;17.70;;;;;;;-0.14;85.95;98491.28;115947;1184;60361;-63
2021/10/20 05:32:05;;;;;;;24.20;13.90;;;;;;;-0.06;84.69;98489.14;116150;1183;60386;-65
2021/10/20 05:34:34;;;;;;;19.10;12.20;;;;;;;0.06;84.02;98490.02;116088;1183;71425;-65
2021/10/20 05:37:04;;;;;;;20.30;12.20;;;;;;;0.18;83.51;98489.83;116140;1184;68982;-62
2021/10/20 05:39:33;;;;;;;18.90;12.50;;;;;;;0.32;83.06;98490.51;116141;1182;68443;-64
2021/10/20 05:42:02;;;;;;;15.60;8.60;;;;;;;0.45;83.04;98491.16;116055;1184;60385;-63
2021/10/20 05:44:32;;;;;;;24.40;15.30;;;;;;;0.58;82.40;98494.91;116127;1184;60775;-64
2021/10/20 05:47:01;;;;;;;27.70;17.40;;;;;;;0.72;82.13;98494.52;115994;1184;72670;-65
2021/10/20 05:49:30;;;;;;;31.40;16.60;;;;;;;0.85;82.23;98494.29;116029;1184;67889;-65
2021/10/20 05:51:59;;;;;;;25.00;14.30;;;;;;;0.99;82.52;98492.18;116051;1184;68713;-64
2021/10/20 05:54:28;;;;;;;50.90;28.20;;;;;;;1.13;82.12;98492.45;116135;1182;60302;-63
2021/10/20 05:56:58;;;;;;;37.70;20.20;;;;;;;1.25;81.67;98487.94;116040;1184;60364;-65
2021/10/20 05:59:27;;;;;;;39.90;21.60;;;;;;;1.39;81.59;98486.98;116165;1184;72911;-62
2021/10/20 06:01:56;;;;;;;42.70;24.50;;;;;;;1.52;81.80;98489.67;115920;1184;67876;-62
2021/10/20 06:04:25;;;;;;;28.00;15.30;;;;;;;1.67;81.41;98491.77;116046;1184;68687;-64
2021/10/20 06:06:55;;;;;;;28.20;16.10;;;;;;;1.88;81.00;98493.74;116165;1183;60357;-64
2021/10/20 06:09:28;;;;;;;27.30;18.20;;;;;;;2.25;80.89;98492.26;116082;1183;60360;-65
2021/10/20 06:11:58;;;;;;;23.20;13.70;;;;;;;2.82;80.40;98492.82;116176;1183;71390;-63
2021/10/20 06:14:28;;;;;;;33.90;21.90;;;;;;;3.47;79.33;98491.52;116010;1184;68486;-64
2021/10/20 06:16:57;;;;;;;24.40;15.10;;;;;;;4.10;78.45;98499.38;116111;1184;69279;-67
2021/10/20 06:19:27;;;;;;;22.80;15.10;;;;;;;4.79;77.25;98496.90;116148;1183;60370;-64
2021/10/20 06:21:58;;;;;;;26.70;15.90;;;;;;;5.54;76.40;98495.91;116161;1183;60348;-65
2021/10/20 06:24:27;;;;;;;34.70;24.10;;;;;;;6.34;69.76;98496.46;116114;1185;72597;-63
2021/10/20 06:26:56;;;;;;;41.50;27.10;;;;;;;6.97;69.97;98495.86;116175;1183;67808;-63
2021/10/20 06:29:26;;;;;;;24.60;16.50;;;;;;;7.46;68.71;98493.46;116040;1183;69113;-65
2021/10/20 06:31:55;;;;;;;23.60;16.60;;;;;;;7.95;69.96;98499.63;116214;1182;60437;-64
2021/10/20 06:34:24;;;;;;;23.20;16.30;;;;;;;8.34;67.31;98498.73;116158;1182;60351;-67
2021/10/20 06:36:54;;;;;;;24.80;16.40;;;;;;;8.71;65.91;98499.27;116093;1184;72257;-63
2021/10/20 06:39:24;;;;;;;25.80;19.80;;;;;;;9.16;68.50;98495.00;116028;1184;69025;-66
2021/10/20 06:41:53;;;;;;;37.40;25.30;;;;;;;9.37;59.74;98495.16;116267;1182;69221;-63
2021/10/20 06:44:24;;;;;;;41.80;32.10;;;;;;;9.58;59.06;98494.24;116266;1184;60339;-65
2021/10/20 06:46:54;;;;;;;30.60;24.10;;;;;;;9.73;58.48;98494.35;116268;1182;60370;-64
2021/10/20 06:49:23;;;;;;;38.70;28.10;;;;;;;10.15;58.72;98493.67;116176;1184;72281;-64
2021/10/20 06:51:52;;;;;;;36.80;29.70;;;;;;;10.62;58.87;98497.75;115944;1184;67532;-65
2021/10/20 06:54:22;;;;;;;37.00;24.00;;;;;;;11.06;56.41;98495.26;116155;1183;68555;-64
2021/10/20 06:56:52;;;;;;;40.50;29.30;;;;;;;11.16;53.97;98489.79;116207;1182;60366;-65
2021/10/20 06:59:21;;;;;;;29.40;23.20;;;;;;;10.97;52.93;98493.53;116128;1184;60343;-64
2021/10/20 07:01:50;;;;;;;27.60;23.40;;;;;;;11.12;53.06;98491.08;116064;1183;71681;-66
2021/10/20 07:04:20;;;;;;;23.00;17.80;;;;;;;11.13;53.70;98489.48;116183;1183;67458;-63
2021/10/20 07:06:51;;;;;;;19.60;13.00;;;;;;;11.40;54.52;98492.10;116157;1184;69867;-64
2021/10/20 07:09:21;;;;;;;15.90;12.20;;;;;;;12.10;56.33;98498.88;116192;1183;60346;-65
2021/10/20 07:11:50;;;;;;;13.70;10.40;;;;;;;12.88;52.72;98497.24;116125;1184;60361;-64
2021/10/20 07:14:19;;;;;;;15.40;11.80;;;;;;;13.52;50.55;98498.63;116234;1184;72175;-65
2021/10/20 07:16:49;;;;;;;11.30;9.30;;;;;;;14.26;52.16;98504.59;116023;1184;67478;-65
2021/10/20 07:19:18;;;;;;;9.80;7.30;;;;;;;14.96;47.77;98505.87;116120;1183;68580;-65
2021/10/20 07:21:48;;;;;;;9.90;7.90;;;;;;;15.59;47.47;98505.59;116186;1183;60355;-66
2021/10/20 07:24:17;;;;;;;13.90;11.50;;;;;;;16.04;46.72;98509.31;116194;1183;60347;-67
2021/10/20 07:26:51;;;;;;;15.30;12.90;;;;;;;16.12;43.60;98506.96;115951;1184;72341;-65
2021/10/20 07:29:20;;;;;;;10.60;9.30;;;;;;;15.83;43.47;98506.73;116220;1182;68406;-65
2021/10/20 07:31:49;;;;;;;14.70;11.50;;;;;;;16.17;43.38;98507.98;116014;1182;69332;-64
2021/10/20 07:34:19;;;;;;;18.30;13.40;;;;;;;16.42;42.31;98510.02;116103;1184;60773;-65
2021/10/20 07:36:48;;;;;;;16.40;12.70;;;;;;;16.40;42.95;98503.88;116127;1183;60323;-64
2021/10/20 07:39:18;;;;;;;14.90;12.80;;;;;;;16.11;42.02;98502.59;116152;1183;72233;-69
2021/10/20 07:41:48;;;;;;;;;;;;;;;15.68;43.77;98495.90;116012;1184;68620;-64
2021/10/20 07:44:18;;;;;;;11.40;9.90;;;;;;;16.28;43.16;98498.50;116236;1184;69280;-63
2021/10/20 07:46:47;;;;;;;11.20;8.30;;;;;;;16.57;42.94;98493.17;116261;1182;60373;-67
2021/10/20 07:49:16;;;;;;;10.00;8.90;;;;;;;16.90;41.18;98489.13;116202;1183;60345;-66
2021/10/20 07:51:46;;;;;;;12.80;10.90;;;;;;;17.42;41.77;98489.80;116182;1182;72972;-68
2021/10/20 07:54:15;;;;;;;14.40;10.40;;;;;;;17.27;39.82;98489.44;116184;1182;68309;-63
2021/10/20 07:56:44;;;;;;;10.10;8.50;;;;;;;17.72;40.68;98488.16;116183;1184;68485;-65
2021/10/20 07:59:13;;;;;;;11.40;9.00;;;;;;;18.25;40.06;98481.60;116171;1182;60380;-64
2021/10/20 08:01:42;;;;;;;10.80;8.20;;;;;;;18.55;38.01;98478.45;116158;1184;60374;-63
2021/10/20 08:04:12;;;;;;;11.60;9.90;;;;;;;18.18;38.50;98475.16;116014;1184;72213;-65
2021/10/20 08:06:41;;;;;;;10.80;8.70;;;;;;;17.75;38.62;98477.63;116216;1182;68391;-66
2021/10/20 08:09:10;;;;;;;11.70;10.00;;;;;;;17.93;38.78;98473.48;116150;1182;69659;-65
2021/10/20 08:11:40;;;;;;;9.20;7.50;;;;;;;18.09;38.93;98474.06;116221;1183;60432;-67
2021/10/20 08:14:09;;;;;;;13.00;10.70;;;;;;;18.65;38.98;98471.90;116182;1184;60325;-64
2021/10/20 08:16:38;;;;;;;12.70;11.30;;;;;;;18.43;37.65;98470.70;116107;1183;73275;-67
2021/10/20 08:19:08;;;;;;;10.60;8.50;;;;;;;18.33;38.47;98469.16;116179;1182;69026;-67
2021/10/20 08:21:37;;;;;;;15.50;13.10;;;;;;;19.02;38.92;98462.81;116167;1182;69314;-67
2021/10/20 08:24:06;;;;;;;14.30;12.30;;;;;;;17.98;38.74;98461.88;116090;1176;60274;-65
2021/10/20 08:26:35;;;;;;;15.40;11.30;;;;;;;18.25;38.70;98459.71;116196;1181;60331;-66
2021/10/20 08:29:04;;;;;;;11.50;10.30;;;;;;;18.77;37.94;98457.77;116127;1183;72174;-67
2021/10/20 08:31:33;;;;;;;14.60;11.90;;;;;;;18.97;37.82;98455.63;116202;1183;68364;-64
2021/10/20 08:34:03;;;;;;;10.10;9.00;;;;;;;18.75;37.80;98459.62;116138;1184;69256;-65
2021/10/20 08:36:32;;;;;;;15.40;12.70;;;;;;;19.61;36.65;98457.52;116008;1184;60414;-67
2021/10/20 08:39:03;;;;;;;9.60;7.70;;;;;;;20.18;36.12;98458.35;116125;1183;60421;-68
2021/10/20 08:41:33;;;;;;;10.70;9.00;;;;;;;21.03;35.18;98453.84;116148;1183;72153;-64
2021/10/20 08:44:04;;;;;;;14.00;11.00;;;;;;;21.74;33.55;98456.39;116237;1183;68497;-67
2021/10/20 08:46:33;;;;;;;12.70;10.70;;;;;;;20.90;32.57;98457.52;116067;1184;69852;-64
2021/10/20 08:49:03;;;;;;;;;;;;;;;19.74;34.01;98457.38;116059;1184;60364;-67
2021/10/20 08:51:33;;;;;;;11.10;9.50;;;;;;;19.76;34.44;98452.63;116220;1184;60347;-68
2021/10/20 08:54:03;;;;;;;12.10;9.70;;;;;;;19.38;34.94;98453.98;116314;1183;72244;-67
2021/10/20 08:56:33;;;;;;;12.20;10.80;;;;;;;19.42;35.23;98452.72;116338;1182;68230;-66
2021/10/20 08:59:03;;;;;;;12.50;9.30;;;;;;;19.08;35.89;98451.05;116313;1183;69261;-67
2021/10/20 09:01:32;;;;;;;9.70;8.30;;;;;;;20.07;35.33;98453.77;116210;1183;60326;-66
2021/10/20 09:04:08;;;;;;;;;;;;;;;20.46;33.48;98450.56;116206;1184;60310;-64
2021/10/20 09:06:37;;;;;;;14.40;10.60;;;;;;;21.21;32.68;98447.95;116171;1184;70512;-64
2021/10/20 09:09:07;;;;;;;13.00;10.40;;;;;;;20.94;31.70;98440.66;116217;1183;67643;-69
2021/10/20 09:11:37;;;;;;;;;;;;;;;20.54;32.48;98443.35;116206;1184;69839;-65
2021/10/20 09:14:10;;;;;;;8.30;7.10;;;;;;;21.27;32.81;98436.36;116212;1184;60381;-68
2021/10/20 09:16:42;;;;;;;11.40;9.60;;;;;;;22.45;31.60;98436.11;116216;1184;60325;-67
2021/10/20 09:19:34;;;;;;;8.50;7.60;;;;;;;22.66;29.23;98432.23;115981;1184;72115;-65
2021/10/20 09:22:11;;;;;;;11.00;9.70;;;;;;;23.66;29.80;98428.59;116082;1184;68473;-65
2021/10/20 09:24:43;;;;;;;11.00;9.00;;;;;;;24.40;28.02;98427.04;116202;1182;68470;-69
2021/10/20 09:27:22;;;;;;;8.90;7.30;;;;;;;24.39;26.92;98426.89;116214;1183;60281;-67
2021/10/20 09:30:09;;;;;;;10.10;8.20;;;;;;;24.58;26.84;98416.73;116328;1183;60382;-65
2021/10/20 09:32:38;;;;;;;8.60;7.10;;;;;;;23.62;27.63;98411.92;116049;1183;72246;-67
2021/10/20 09:35:12;;;;;;;11.60;10.10;;;;;;;24.47;27.03;98411.30;115986;1184;67892;-64
2021/10/20 09:37:42;;;;;;;12.40;10.50;;;;;;;23.80;26.52;98407.38;116130;1184;68350;-64
2021/10/20 09:40:14;;;;;;;10.50;8.70;;;;;;;24.33;26.60;98400.86;116282;1182;60366;-69
2021/10/20 09:42:48;;;;;;;9.80;8.10;;;;;;;25.35;25.90;98388.73;116377;1182;60362;-67
2021/10/20 09:45:20;;;;;;;9.30;7.90;;;;;;;26.44;25.02;98392.75;116295;1183;72816;-68
2021/10/20 09:47:50;;;;;;;10.70;8.90;;;;;;;26.96;23.69;98385.92;116191;1183;68417;-66
2021/10/20 09:51:03;;;;;;;9.60;8.60;;;;;;;24.38;25.32;98387.98;116209;1182;69356;-65
2021/10/20 09:53:34;;;;;;;10.50;8.50;;;;;;;22.87;27.58;98381.82;116140;1184;60383;-64
2021/10/20 09:56:22;;;;;;;9.10;6.80;;;;;;;21.76;29.75;98374.95;116046;1184;60328;-64
2021/10/20 09:58:53;;;;;;;7.70;6.90;;;;;;;23.21;27.81;98366.44;116136;1174;71162;-70
2021/10/20 10:01:25;;;;;;;9.90;8.80;;;;;;;23.12;27.32;98361.75;116145;1183;69142;-65
2021/10/20 10:04:02;;;;;;;9.20;7.90;;;;;;;22.83;28.22;98351.00;116118;1183;69868;-68
2021/10/20 10:06:31;;;;;;;7.30;6.30;;;;;;;22.59;28.52;98342.95;116015;1184;60430;-65
2021/10/20 10:09:20;;;;;;;;;;;;;;;22.93;27.95;98342.35;116196;1183;60329;-66
2021/10/20 10:11:52;;;;;;;10.90;8.60;;;;;;;22.01;29.21;98337.26;116208;1183;72182;-64
2021/10/20 10:14:28;;;;;;;9.50;8.50;;;;;;;21.55;30.53;98340.95;116208;1183;67628;-67
2021/10/20 10:17:00;;;;;;;10.30;8.70;;;;;;;21.33;30.45;98337.58;116186;1184;68282;-66
2021/10/20 10:19:34;;;;;;;7.60;6.60;;;;;;;21.26;30.58;98331.52;115981;1183;60384;-65
2021/10/20 10:22:26;;;;;;;7.80;6.80;;;;;;;21.99;29.92;98336.30;116186;1182;60334;-68
2021/10/20 10:25:07;;;;;;;12.00;9.80;;;;;;;22.70;28.55;98334.16;116253;1184;72170;-65
2021/10/20 10:27:36;;;;;;;10.30;8.40;;;;;;;23.21;27.85;98336.61;116297;1183;68516;-66
2021/10/20 10:30:17;;;;;;;7.70;6.90;;;;;;;23.73;27.51;98336.52;116113;1184;69552;-67
2021/10/20 10:32:53;;;;;;;11.40;9.60;;;;;;;24.07;26.90;98332.31;116193;1184;60363;-65
2021/10/20 10:35:31;;;;;;;11.90;8.80;;;;;;;23.70;27.24;98333.24;116259;1182;60316;-64
2021/10/20 10:38:03;;;;;;;7.50;6.20;;;;;;;24.03;27.71;98327.55;116191;1183;72755;-66
2021/10/20 10:40:32;;;;;;;11.00;8.30;;;;;;;24.27;26.92;98324.13;115983;1184;69093;-64
2021/10/20 10:43:07;;;;;;;11.00;9.70;;;;;;;23.22;27.63;98319.42;116224;1183;68481;-68
2021/10/20 10:45:37;;;;;;;9.70;8.60;;;;;;;22.07;29.69;98312.99;116252;1183;60348;-66
2021/10/20 10:48:10;;;;;;;10.60;8.60;;;;;;;22.81;28.64;98306.06;116247;1182;60369;-65
2021/10/20 10:50:53;;;;;;;7.20;6.50;;;;;;;23.02;28.09;98302.58;116279;1183;72827;-67
2021/10/20 10:53:31;;;;;;;7.80;6.70;;;;;;;23.49;28.10;98299.48;116278;1182;68368;-65
2021/10/20 10:56:15;;;;;;;6.40;5.80;;;;;;;23.65;28.19;98298.26;116277;1183;69266;-68
2021/10/20 10:59:09;;;;;;;10.10;7.40;;;;;;;23.60;27.63;98289.20;116239;1174;60348;-68
2021/10/20 11:01:39;;;;;;;8.50;6.80;;;;;;;23.55;27.35;98286.41;116225;1182;60336;-66
2021/10/20 11:04:33;;;;;;;11.90;9.20;;;;;;;22.67;28.17;98273.35;116179;1183;73232;-70
2021/10/20 11:07:03;;;;;;;10.60;8.90;;;;;;;22.92;27.85;98272.00;116191;1183;67505;-70
2021/10/20 11:09:34;;;;;;;10.70;9.40;;;;;;;22.33;28.53;98265.98;116176;1183;69262;-68
2021/10/20 11:12:05;;;;;;;8.70;7.50;;;;;;;22.03;29.42;98261.98;116190;1184;60349;-67
2021/10/20 11:14:34;;;;;;;10.20;8.90;;;;;;;22.58;28.69;98262.92;116322;1183;60382;-67
2021/10/20 11:17:12;;;;;;;10.10;9.10;;;;;;;22.70;28.15;98262.73;116350;1182;71499;-71
2021/10/20 11:19:42;;;;;;;7.70;6.90;;;;;;;23.06;27.81;98259.98;116203;1184;68462;-65
2021/10/20 11:22:18;;;;;;;6.10;5.40;;;;;;;24.02;27.19;98251.35;116233;1183;69705;-68
2021/10/20 11:24:48;;;;;;;8.70;6.70;;;;;;;25.06;25.40;98246.98;116227;1174;60364;-68
2021/10/20 11:27:23;;;;;;;10.60;8.90;;;;;;;25.76;23.82;98239.48;116301;1183;60376;-65
2021/10/20 11:29:53;;;;;;;10.40;8.30;;;;;;;24.94;24.83;98237.52;116352;1183;71965;-65
2021/10/20 11:32:23;;;;;;;12.10;8.90;;;;;;;25.86;24.67;98231.43;116292;1183;68191;-66
2021/10/20 11:34:54;;;;;;;;;;;;;;;24.91;24.55;98230.36;116057;1184;69340;-64
2021/10/20 11:37:25;;;;;;;9.20;7.60;;;;;;;25.82;24.27;98226.32;116084;1184;60387;-68
2021/10/20 11:40:03;;;;;;;7.10;6.40;;;;;;;26.83;23.54;98231.05;116195;1184;60366;-66